Sea vigil — MNRH9 — position and weather

sailwx.info

Track history (hours):
 
Tides and Currents Weather Stations Pressure Air Temp Water Temp Dewpoint Dewpoint Depression Visibility Wind Speed Wind Dir Waves Ship Positions

Oceanographic research ship Sea vigil (UK)

Detailed information on ship capabilities available from University of Delaware's Ocean Information Center.

Last reported at 2015-Apr-10 13:09 UTC. Time now 2015-Jul-31 01:07 UTC.
Position N 50°48' W 001°15'.
Warning: this ship's position is months out of date.

Length 17 m.

Type: Pollution control. MMSI: 235068127.

Date/timePositionNaut miles runAvg speedWind from/ knotsBaromVisibWave heightAir tempDewpointWater temp
2015-Apr-10 13:09N 50°48' W 001°15'5 7.6
2015-Apr-10 12:33N 50°46' W 001°08'6 6.4
2015-Apr-10 11:33N 50°43' W 000°59'35 1.7
2015-Apr-09 15:14N 50°42' W 000°03'13 7.4
2015-Apr-09 13:33N 50°42' E 000°17'6 6.1
2015-Apr-09 12:33N 50°44' E 000°26'6 6.0
2015-Apr-09 11:33N 50°48' E 000°33'36 2.2
2015-Apr-08 19:09N 51°06' E 001°22'5 8.2
2015-Apr-08 18:31N 51°09' E 001°30'8 8.0
2015-Apr-08 17:33N 51°15' E 001°36'7 7.1
2015-Apr-08 16:33N 51°22' E 001°34'7 7.1
2015-Apr-08 15:33N 51°27' E 001°26'9 6.6
2015-Apr-08 14:08N 51°29' E 001°11'9 5.4
2015-Apr-08 12:30N 51°29' E 000°57'10 5.1
2015-Apr-08 10:28N 51°30' E 000°40'6 6.8
2015-Apr-08 09:32N 51°30' E 000°30'7 6.6
2015-Apr-08 08:33N 51°27' E 000°21'7 7.0
2015-Apr-08 07:33N 51°30' E 000°11'  
Track history (hours):
 
Tides and Currents Weather Stations Pressure Air Temp Water Temp Dewpoint Dewpoint Depression Visibility Wind Speed Wind Dir Waves Ship Positions

Oceanographic research ship Sea vigil (UK)

Detailed information on ship capabilities available from University of Delaware's Ocean Information Center.

Last reported at 2015-Apr-10 13:09 UTC. Time now 2015-Jul-31 01:07 UTC.
Position N 50°48' W 001°15'.
Warning: this ship's position is months out of date.

Length 17 m.

Type: Pollution control. MMSI: 235068127.

Date/timePositionNaut miles runAvg speedWind from/ knotsBaromVisibWave heightAir tempDewpointWater temp
2015-Apr-10 13:09N 50°48' W 001°15'5 7.6
2015-Apr-10 12:33N 50°46' W 001°08'6 6.4
2015-Apr-10 11:33N 50°43' W 000°59'35 1.7
2015-Apr-09 15:14N 50°42' W 000°03'13 7.4
2015-Apr-09 13:33N 50°42' E 000°17'6 6.1
2015-Apr-09 12:33N 50°44' E 000°26'6 6.0
2015-Apr-09 11:33N 50°48' E 000°33'36 2.2
2015-Apr-08 19:09N 51°06' E 001°22'5 8.2
2015-Apr-08 18:31N 51°09' E 001°30'8 8.0
2015-Apr-08 17:33N 51°15' E 001°36'7 7.1
2015-Apr-08 16:33N 51°22' E 001°34'7 7.1
2015-Apr-08 15:33N 51°27' E 001°26'9 6.6
2015-Apr-08 14:08N 51°29' E 001°11'9 5.4
2015-Apr-08 12:30N 51°29' E 000°57'10 5.1
2015-Apr-08 10:28N 51°30' E 000°40'6 6.8
2015-Apr-08 09:32N 51°30' E 000°30'7 6.6
2015-Apr-08 08:33N 51°27' E 000°21'7 7.0
2015-Apr-08 07:33N 51°30' E 000°11'  

Dump ship's entire track history